sensor_id;sensor_type;location;lat;lon;timestamp;pressure;altitude;pressure_sealevel;temperature;humidity
39051;BME280;24805;55.852;37.644;2024-03-08T00:03:11;99426.84;;;-2.01;49.70
39051;BME280;24805;55.852;37.644;2024-03-08T00:08:13;99422.66;;;-2.03;50.04
39051;BME280;24805;55.852;37.644;2024-03-08T00:13:15;99382.38;;;-2.23;49.10
39051;BME280;24805;55.852;37.644;2024-03-08T00:18:18;99399.47;;;-2.06;48.56
39051;BME280;24805;55.852;37.644;2024-03-08T00:23:20;99392.59;;;-2.08;49.16
39051;BME280;24805;55.852;37.644;2024-03-08T00:28:22;99384.91;;;-2.09;48.52
39051;BME280;24805;55.852;37.644;2024-03-08T00:33:26;99376.38;;;-2.11;48.80
39051;BME280;24805;55.852;37.644;2024-03-08T00:38:32;99376.16;;;-2.08;48.35
39051;BME280;24805;55.852;37.644;2024-03-08T00:43:36;99369.31;;;-1.96;48.85
39051;BME280;24805;55.852;37.644;2024-03-08T00:48:38;99348.34;;;-1.81;48.23
39051;BME280;24805;55.852;37.644;2024-03-08T00:53:41;99342.63;;;-1.60;47.74
39051;BME280;24805;55.852;37.644;2024-03-08T00:58:43;99333.94;;;-1.48;48.50
39051;BME280;24805;55.852;37.644;2024-03-08T01:03:45;99339.56;;;-1.42;47.97
39051;BME280;24805;55.852;37.644;2024-03-08T01:08:48;99335.41;;;-1.44;47.68
39051;BME280;24805;55.852;37.644;2024-03-08T01:13:50;99303.69;;;-1.62;48.55
39051;BME280;24805;55.852;37.644;2024-03-08T01:18:52;99330.41;;;-1.47;48.98
39051;BME280;24805;55.852;37.644;2024-03-08T01:23:55;99332.81;;;-1.44;49.56
39051;BME280;24805;55.852;37.644;2024-03-08T01:28:57;99330.16;;;-1.31;48.74
39051;BME280;24805;55.852;37.644;2024-03-08T01:33:59;99323.97;;;-1.18;48.61
39051;BME280;24805;55.852;37.644;2024-03-08T01:39:02;99298.50;;;-1.25;48.75
39051;BME280;24805;55.852;37.644;2024-03-08T01:44:05;99314.13;;;-1.25;48.63
39051;BME280;24805;55.852;37.644;2024-03-08T01:49:09;99325.63;;;-1.41;48.82
39051;BME280;24805;55.852;37.644;2024-03-08T01:54:14;99313.03;;;-1.59;48.53
39051;BME280;24805;55.852;37.644;2024-03-08T01:59:19;99290.47;;;-1.97;48.86
39051;BME280;24805;55.852;37.644;2024-03-08T02:04:21;99309.84;;;-2.01;49.25
39051;BME280;24805;55.852;37.644;2024-03-08T02:09:24;99309.41;;;-2.20;49.70
39051;BME280;24805;55.852;37.644;2024-03-08T02:14:26;99314.13;;;-2.39;50.59
39051;BME280;24805;55.852;37.644;2024-03-08T02:19:29;99302.72;;;-2.50;50.77
39051;BME280;24805;55.852;37.644;2024-03-08T02:24:32;99301.66;;;-2.60;51.47
39051;BME280;24805;55.852;37.644;2024-03-08T02:29:35;99302.06;;;-2.66;51.67
39051;BME280;24805;55.852;37.644;2024-03-08T02:34:38;99303.53;;;-2.62;51.45
39051;BME280;24805;55.852;37.644;2024-03-08T02:39:41;99297.59;;;-2.64;51.36
39051;BME280;24805;55.852;37.644;2024-03-08T02:44:43;99294.56;;;-2.70;51.73
39051;BME280;24805;55.852;37.644;2024-03-08T02:49:49;99296.31;;;-2.71;51.29
39051;BME280;24805;55.852;37.644;2024-03-08T02:54:52;99286.84;;;-2.72;50.90
39051;BME280;24805;55.852;37.644;2024-03-08T02:59:54;99267.13;;;-2.74;51.35
39051;BME280;24805;55.852;37.644;2024-03-08T03:04:57;99274.72;;;-2.71;52.00
39051;BME280;24805;55.852;37.644;2024-03-08T03:10:00;99267.66;;;-2.69;51.46
39051;BME280;24805;55.852;37.644;2024-03-08T03:15:04;99269.81;;;-2.76;51.29
39051;BME280;24805;55.852;37.644;2024-03-08T03:20:09;99267.94;;;-2.74;51.84
39051;BME280;24805;55.852;37.644;2024-03-08T03:25:12;99251.13;;;-2.68;51.62
39051;BME280;24805;55.852;37.644;2024-03-08T03:30:14;99259.03;;;-2.70;51.75
39051;BME280;24805;55.852;37.644;2024-03-08T03:35:28;99248.44;;;-2.67;52.33
39051;BME280;24805;55.852;37.644;2024-03-08T03:40:37;99246.38;;;-2.62;51.73
39051;BME280;24805;55.852;37.644;2024-03-08T03:45:40;99236.41;;;-2.68;52.63
39051;BME280;24805;55.852;37.644;2024-03-08T03:50:44;99233.78;;;-2.68;52.95
39051;BME280;24805;55.852;37.644;2024-03-08T03:55:46;99235.34;;;-2.65;53.62
39051;BME280;24805;55.852;37.644;2024-03-08T04:00:48;99235.91;;;-2.60;53.21
39051;BME280;24805;55.852;37.644;2024-03-08T04:05:51;99226.00;;;-2.55;53.22
39051;BME280;24805;55.852;37.644;2024-03-08T04:10:54;99231.84;;;-2.52;53.57
39051;BME280;24805;55.852;37.644;2024-03-08T04:15:56;99221.59;;;-2.40;53.71
39051;BME280;24805;55.852;37.644;2024-03-08T04:20:58;99221.78;;;-2.31;53.47
39051;BME280;24805;55.852;37.644;2024-03-08T04:26:02;99227.59;;;-2.27;54.15
39051;BME280;24805;55.852;37.644;2024-03-08T04:31:06;99216.56;;;-2.18;54.13
39051;BME280;24805;55.852;37.644;2024-03-08T04:36:08;99219.69;;;-2.13;53.80
39051;BME280;24805;55.852;37.644;2024-03-08T04:41:15;99196.13;;;-2.23;54.14
39051;BME280;24805;55.852;37.644;2024-03-08T04:46:17;99216.78;;;-2.09;54.13
39051;BME280;24805;55.852;37.644;2024-03-08T04:51:21;99206.38;;;-2.09;54.80
39051;BME280;24805;55.852;37.644;2024-03-08T04:56:23;99195.97;;;-2.09;55.35
39051;BME280;24805;55.852;37.644;2024-03-08T05:01:25;99192.34;;;-2.06;55.06
39051;BME280;24805;55.852;37.644;2024-03-08T05:06:28;99177.59;;;-2.05;54.89
39051;BME280;24805;55.852;37.644;2024-03-08T05:11:32;99169.06;;;-2.08;54.94
39051;BME280;24805;55.852;37.644;2024-03-08T05:16:34;99171.09;;;-1.87;54.67
39051;BME280;24805;55.852;37.644;2024-03-08T05:21:37;99177.53;;;-1.80;56.15
39051;BME280;24805;55.852;37.644;2024-03-08T05:26:39;99174.78;;;-1.66;55.10
39051;BME280;24805;55.852;37.644;2024-03-08T05:36:45;99154.81;;;-1.65;54.80
39051;BME280;24805;55.852;37.644;2024-03-08T05:41:54;99180.84;;;-1.42;54.46
39051;BME280;24805;55.852;37.644;2024-03-08T05:46:57;99171.00;;;-1.38;54.21
39051;BME280;24805;55.852;37.644;2024-03-08T05:51:59;99180.44;;;-1.24;54.29
39051;BME280;24805;55.852;37.644;2024-03-08T05:57:02;99173.63;;;-1.14;53.66
39051;BME280;24805;55.852;37.644;2024-03-08T06:02:04;99173.69;;;-1.03;53.70
39051;BME280;24805;55.852;37.644;2024-03-08T06:07:07;99179.84;;;-0.93;53.10
39051;BME280;24805;55.852;37.644;2024-03-08T06:12:14;99170.78;;;-0.76;52.54
39051;BME280;24805;55.852;37.644;2024-03-08T06:17:21;99174.03;;;-0.50;52.35
39051;BME280;24805;55.852;37.644;2024-03-08T06:22:27;99173.69;;;-0.35;51.55
39051;BME280;24805;55.852;37.644;2024-03-08T06:27:30;99169.81;;;-0.29;51.93
39051;BME280;24805;55.852;37.644;2024-03-08T06:32:38;99152.03;;;-0.13;51.20
39051;BME280;24805;55.852;37.644;2024-03-08T06:37:41;99167.91;;;-0.05;50.53
39051;BME280;24805;55.852;37.644;2024-03-08T06:42:46;99154.25;;;0.03;51.08
39051;BME280;24805;55.852;37.644;2024-03-08T06:47:49;99146.75;;;0.21;50.53
39051;BME280;24805;55.852;37.644;2024-03-08T06:52:52;99156.31;;;0.43;50.50
39051;BME280;24805;55.852;37.644;2024-03-08T06:57:55;99156.78;;;0.59;49.50
39051;BME280;24805;55.852;37.644;2024-03-08T07:02:57;99159.75;;;0.86;49.50
39051;BME280;24805;55.852;37.644;2024-03-08T07:08:03;99167.38;;;1.10;49.11
39051;BME280;24805;55.852;37.644;2024-03-08T07:13:05;99168.00;;;1.23;48.45
39051;BME280;24805;55.852;37.644;2024-03-08T07:18:08;99163.94;;;1.30;47.97
39051;BME280;24805;55.852;37.644;2024-03-08T07:23:11;99167.88;;;1.46;48.16
39051;BME280;24805;55.852;37.644;2024-03-08T07:28:33;99159.03;;;1.58;47.91
39051;BME280;24805;55.852;37.644;2024-03-08T07:33:36;99161.88;;;1.76;47.59
39051;BME280;24805;55.852;37.644;2024-03-08T07:38:38;99169.56;;;2.07;47.19
39051;BME280;24805;55.852;37.644;2024-03-08T07:43:41;99145.31;;;2.05;46.49
39051;BME280;24805;55.852;37.644;2024-03-08T07:48:43;99132.69;;;2.20;46.85
39051;BME280;24805;55.852;37.644;2024-03-08T07:53:47;99160.22;;;2.74;46.10
39051;BME280;24805;55.852;37.644;2024-03-08T07:58:50;99155.38;;;3.08;45.56
39051;BME280;24805;55.852;37.644;2024-03-08T08:03:52;99154.00;;;3.23;45.31
39051;BME280;24805;55.852;37.644;2024-03-08T08:08:55;99157.06;;;3.19;45.21
39051;BME280;24805;55.852;37.644;2024-03-08T08:13:57;99151.63;;;3.20;45.69
39051;BME280;24805;55.852;37.644;2024-03-08T08:19:01;99145.41;;;3.40;44.90
39051;BME280;24805;55.852;37.644;2024-03-08T08:24:06;99142.63;;;3.52;44.68
39051;BME280;24805;55.852;37.644;2024-03-08T08:29:08;99141.94;;;3.50;44.65
39051;BME280;24805;55.852;37.644;2024-03-08T08:34:11;99135.22;;;3.28;44.76
39051;BME280;24805;55.852;37.644;2024-03-08T08:39:14;99156.78;;;3.12;45.28
39051;BME280;24805;55.852;37.644;2024-03-08T08:44:16;99160.75;;;3.06;45.53
39051;BME280;24805;55.852;37.644;2024-03-08T08:49:18;99149.31;;;3.07;46.17
39051;BME280;24805;55.852;37.644;2024-03-08T08:54:22;99141.03;;;3.12;46.41
39051;BME280;24805;55.852;37.644;2024-03-08T08:59:27;99139.31;;;3.40;46.04
39051;BME280;24805;55.852;37.644;2024-03-08T09:04:29;99118.81;;;3.72;45.56
39051;BME280;24805;55.852;37.644;2024-03-08T09:09:33;99107.31;;;4.10;45.03
39051;BME280;24805;55.852;37.644;2024-03-08T09:14:35;99110.38;;;4.51;43.99
39051;BME280;24805;55.852;37.644;2024-03-08T09:19:37;99107.84;;;4.77;43.58
39051;BME280;24805;55.852;37.644;2024-03-08T09:24:39;99114.38;;;4.91;42.95
39051;BME280;24805;55.852;37.644;2024-03-08T09:29:42;99119.63;;;4.73;43.21
39051;BME280;24805;55.852;37.644;2024-03-08T09:34:46;99122.72;;;4.68;43.57
39051;BME280;24805;55.852;37.644;2024-03-08T09:39:48;99126.84;;;4.71;43.75
39051;BME280;24805;55.852;37.644;2024-03-08T09:44:50;99123.91;;;4.56;43.63
39051;BME280;24805;55.852;37.644;2024-03-08T09:49:53;99123.38;;;4.53;43.71
39051;BME280;24805;55.852;37.644;2024-03-08T09:54:56;99118.25;;;4.33;43.84
39051;BME280;24805;55.852;37.644;2024-03-08T09:59:58;99102.06;;;4.10;44.22
39051;BME280;24805;55.852;37.644;2024-03-08T10:05:01;99124.09;;;4.27;44.88
39051;BME280;24805;55.852;37.644;2024-03-08T10:10:05;99121.69;;;4.34;44.59
39051;BME280;24805;55.852;37.644;2024-03-08T10:15:11;99104.16;;;4.34;44.79
39051;BME280;24805;55.852;37.644;2024-03-08T10:20:17;99113.75;;;4.43;44.47
39051;BME280;24805;55.852;37.644;2024-03-08T10:25:20;99119.75;;;4.36;44.45
39051;BME280;24805;55.852;37.644;2024-03-08T10:30:24;99119.69;;;4.45;44.86
39051;BME280;24805;55.852;37.644;2024-03-08T10:35:27;99101.69;;;4.50;44.57
39051;BME280;24805;55.852;37.644;2024-03-08T10:40:30;99111.75;;;4.55;44.62
39051;BME280;24805;55.852;37.644;2024-03-08T10:45:36;99121.78;;;4.60;44.21
39051;BME280;24805;55.852;37.644;2024-03-08T10:50:39;99112.03;;;4.52;44.75
39051;BME280;24805;55.852;37.644;2024-03-08T10:55:45;99110.47;;;4.77;44.43
39051;BME280;24805;55.852;37.644;2024-03-08T11:00:49;99109.41;;;4.88;43.78
39051;BME280;24805;55.852;37.644;2024-03-08T11:05:52;99107.19;;;4.75;44.06
39051;BME280;24805;55.852;37.644;2024-03-08T11:10:55;99106.34;;;4.74;43.89
39051;BME280;24805;55.852;37.644;2024-03-08T11:15:59;99096.47;;;5.12;43.84
39051;BME280;24805;55.852;37.644;2024-03-08T11:21:04;99102.25;;;5.67;43.45
39051;BME280;24805;55.852;37.644;2024-03-08T11:26:20;99083.94;;;6.42;41.57
39051;BME280;24805;55.852;37.644;2024-03-08T11:31:24;99079.97;;;6.30;41.15
39051;BME280;24805;55.852;37.644;2024-03-08T11:36:28;99090.97;;;6.17;41.23
39051;BME280;24805;55.852;37.644;2024-03-08T11:41:31;99091.56;;;5.95;42.15
39051;BME280;24805;55.852;37.644;2024-03-08T11:46:34;99091.28;;;5.80;41.87
39051;BME280;24805;55.852;37.644;2024-03-08T11:51:36;99090.28;;;5.81;41.79
39051;BME280;24805;55.852;37.644;2024-03-08T11:56:38;99073.59;;;5.64;42.02
39051;BME280;24805;55.852;37.644;2024-03-08T12:01:42;99085.84;;;5.81;42.19
39051;BME280;24805;55.852;37.644;2024-03-08T12:06:45;99054.03;;;5.67;41.68
39051;BME280;24805;55.852;37.644;2024-03-08T12:11:49;99072.00;;;5.71;41.52
39051;BME280;24805;55.852;37.644;2024-03-08T12:16:53;99066.59;;;5.73;41.67
39051;BME280;24805;55.852;37.644;2024-03-08T12:21:55;99101.72;;;5.90;41.86
39051;BME280;24805;55.852;37.644;2024-03-08T12:26:58;99101.78;;;5.98;41.44
39051;BME280;24805;55.852;37.644;2024-03-08T12:32:00;99072.38;;;5.84;41.35
39051;BME280;24805;55.852;37.644;2024-03-08T12:37:03;99087.19;;;5.77;41.51
39051;BME280;24805;55.852;37.644;2024-03-08T12:42:09;99105.84;;;6.42;41.25
39051;BME280;24805;55.852;37.644;2024-03-08T12:47:11;99102.28;;;7.33;39.15
39051;BME280;24805;55.852;37.644;2024-03-08T12:52:13;99099.31;;;7.44;38.08
39051;BME280;24805;55.852;37.644;2024-03-08T12:57:16;99106.59;;;7.09;38.83
39051;BME280;24805;55.852;37.644;2024-03-08T13:02:18;99088.78;;;6.54;39.19
39051;BME280;24805;55.852;37.644;2024-03-08T13:07:21;99100.28;;;5.95;40.77
39051;BME280;24805;55.852;37.644;2024-03-08T13:12:25;99104.78;;;5.51;41.53
39051;BME280;24805;55.852;37.644;2024-03-08T13:17:28;99106.88;;;5.22;42.25
39051;BME280;24805;55.852;37.644;2024-03-08T13:22:31;99101.50;;;5.05;43.15
39051;BME280;24805;55.852;37.644;2024-03-08T13:27:33;99086.44;;;4.90;43.01
39051;BME280;24805;55.852;37.644;2024-03-08T13:32:35;99082.75;;;4.65;43.23
39051;BME280;24805;55.852;37.644;2024-03-08T13:37:39;99078.19;;;4.31;44.04
39051;BME280;24805;55.852;37.644;2024-03-08T13:42:42;99074.00;;;4.38;45.02
39051;BME280;24805;55.852;37.644;2024-03-08T13:47:45;99066.44;;;5.82;42.87
39051;BME280;24805;55.852;37.644;2024-03-08T13:52:48;99087.63;;;7.38;39.69
39051;BME280;24805;55.852;37.644;2024-03-08T13:57:55;99098.13;;;7.54;38.55
39051;BME280;24805;55.852;37.644;2024-03-08T14:03:00;99091.25;;;6.80;39.47
39051;BME280;24805;55.852;37.644;2024-03-08T14:08:02;99086.81;;;5.98;40.41
39051;BME280;24805;55.852;37.644;2024-03-08T14:13:05;99093.19;;;5.36;41.75
39051;BME280;24805;55.852;37.644;2024-03-08T14:18:09;99092.91;;;4.77;43.10
39051;BME280;24805;55.852;37.644;2024-03-08T14:23:11;99097.25;;;4.33;43.67
39051;BME280;24805;55.852;37.644;2024-03-08T14:28:14;99097.81;;;4.00;44.76
39051;BME280;24805;55.852;37.644;2024-03-08T14:33:17;99100.84;;;3.77;46.22
39051;BME280;24805;55.852;37.644;2024-03-08T14:38:19;99104.91;;;3.62;46.21
39051;BME280;24805;55.852;37.644;2024-03-08T14:43:22;99091.44;;;3.47;46.52
39051;BME280;24805;55.852;37.644;2024-03-08T14:48:25;99088.31;;;3.34;47.41
39051;BME280;24805;55.852;37.644;2024-03-08T14:53:27;99100.03;;;3.30;47.57
39051;BME280;24805;55.852;37.644;2024-03-08T14:58:29;99102.94;;;3.27;47.85
39051;BME280;24805;55.852;37.644;2024-03-08T15:03:31;99109.88;;;3.19;48.36
39051;BME280;24805;55.852;37.644;2024-03-08T15:08:35;99101.88;;;3.10;48.54
39051;BME280;24805;55.852;37.644;2024-03-08T15:13:38;99105.88;;;2.95;48.86
39051;BME280;24805;55.852;37.644;2024-03-08T15:18:44;99108.50;;;2.86;49.54
39051;BME280;24805;55.852;37.644;2024-03-08T15:23:53;99110.59;;;2.72;49.54
39051;BME280;24805;55.852;37.644;2024-03-08T15:28:57;99116.22;;;2.68;49.98
39051;BME280;24805;55.852;37.644;2024-03-08T15:33:59;99127.53;;;2.68;49.60
39051;BME280;24805;55.852;37.644;2024-03-08T15:39:09;99122.00;;;2.62;49.95
39051;BME280;24805;55.852;37.644;2024-03-08T15:44:12;99138.28;;;2.65;50.03
39051;BME280;24805;55.852;37.644;2024-03-08T15:49:15;99134.81;;;2.65;50.41
39051;BME280;24805;55.852;37.644;2024-03-08T15:54:18;99137.19;;;2.68;50.15
39051;BME280;24805;55.852;37.644;2024-03-08T15:59:20;99143.38;;;2.57;50.85
39051;BME280;24805;55.852;37.644;2024-03-08T16:04:23;99152.88;;;2.49;50.41
39051;BME280;24805;55.852;37.644;2024-03-08T16:09:27;99154.63;;;2.29;50.78
39051;BME280;24805;55.852;37.644;2024-03-08T16:14:36;99132.50;;;2.02;51.50
39051;BME280;24805;55.852;37.644;2024-03-08T16:19:39;99133.31;;;1.93;51.81
39051;BME280;24805;55.852;37.644;2024-03-08T16:24:43;99143.97;;;2.11;51.71
39051;BME280;24805;55.852;37.644;2024-03-08T16:29:45;99144.28;;;2.18;51.54
39051;BME280;24805;55.852;37.644;2024-03-08T16:34:49;99151.31;;;2.27;51.47
39051;BME280;24805;55.852;37.644;2024-03-08T16:39:53;99152.16;;;2.37;51.65
39051;BME280;24805;55.852;37.644;2024-03-08T16:44:55;99153.69;;;2.39;51.13
39051;BME280;24805;55.852;37.644;2024-03-08T16:49:58;99149.13;;;2.32;51.76
39051;BME280;24805;55.852;37.644;2024-03-08T16:55:01;99137.06;;;2.10;53.02
39051;BME280;24805;55.852;37.644;2024-03-08T17:00:09;99168.81;;;2.26;54.05
39051;BME280;24805;55.852;37.644;2024-03-08T17:05:16;99165.47;;;2.24;54.67
39051;BME280;24805;55.852;37.644;2024-03-08T17:10:18;99164.91;;;2.11;53.93
39051;BME280;24805;55.852;37.644;2024-03-08T17:15:22;99161.38;;;1.91;54.56
39051;BME280;24805;55.852;37.644;2024-03-08T17:20:25;99130.97;;;1.60;55.21
39051;BME280;24805;55.852;37.644;2024-03-08T17:25:28;99148.44;;;1.59;55.59
39051;BME280;24805;55.852;37.644;2024-03-08T17:30:31;99146.81;;;1.68;56.20
39051;BME280;24805;55.852;37.644;2024-03-08T17:35:35;99138.47;;;1.74;55.03
39051;BME280;24805;55.852;37.644;2024-03-08T17:40:41;99141.66;;;1.87;54.22
39051;BME280;24805;55.852;37.644;2024-03-08T17:45:46;99147.00;;;1.76;54.69
39051;BME280;24805;55.852;37.644;2024-03-08T17:50:48;99118.09;;;1.47;54.76
39051;BME280;24805;55.852;37.644;2024-03-08T17:55:52;99152.31;;;1.44;55.00
39051;BME280;24805;55.852;37.644;2024-03-08T18:00:56;99137.94;;;1.29;55.22
39051;BME280;24805;55.852;37.644;2024-03-08T18:05:58;99148.47;;;1.18;55.43
39051;BME280;24805;55.852;37.644;2024-03-08T18:11:01;99148.47;;;1.18;55.61
39051;BME280;24805;55.852;37.644;2024-03-08T18:16:03;99147.81;;;1.25;55.63
39051;BME280;24805;55.852;37.644;2024-03-08T18:21:09;99158.59;;;1.32;55.78
39051;BME280;24805;55.852;37.644;2024-03-08T18:26:12;99170.63;;;1.44;55.84
39051;BME280;24805;55.852;37.644;2024-03-08T18:31:14;99155.25;;;1.51;54.61
39051;BME280;24805;55.852;37.644;2024-03-08T18:36:17;99166.94;;;1.47;54.45
39051;BME280;24805;55.852;37.644;2024-03-08T18:41:20;99168.09;;;1.33;54.56
39051;BME280;24805;55.852;37.644;2024-03-08T18:46:24;99181.19;;;1.22;54.72
39051;BME280;24805;55.852;37.644;2024-03-08T18:51:26;99169.75;;;1.13;54.58
39051;BME280;24805;55.852;37.644;2024-03-08T18:56:28;99174.38;;;1.10;54.80
39051;BME280;24805;55.852;37.644;2024-03-08T19:01:31;99146.22;;;0.92;54.83
39051;BME280;24805;55.852;37.644;2024-03-08T19:06:38;99177.88;;;0.99;54.81
39051;BME280;24805;55.852;37.644;2024-03-08T19:11:40;99160.47;;;0.88;54.75
39051;BME280;24805;55.852;37.644;2024-03-08T19:16:43;99169.97;;;0.89;55.07
39051;BME280;24805;55.852;37.644;2024-03-08T19:21:47;99166.63;;;0.87;55.23
39051;BME280;24805;55.852;37.644;2024-03-08T19:26:49;99169.50;;;0.84;54.84
39051;BME280;24805;55.852;37.644;2024-03-08T19:31:51;99167.84;;;0.83;54.53
39051;BME280;24805;55.852;37.644;2024-03-08T19:36:54;99163.69;;;0.81;54.45
39051;BME280;24805;55.852;37.644;2024-03-08T19:41:56;99156.38;;;0.75;54.04
39051;BME280;24805;55.852;37.644;2024-03-08T19:47:00;99160.06;;;0.72;54.04
39051;BME280;24805;55.852;37.644;2024-03-08T19:52:04;99151.28;;;0.73;54.53
39051;BME280;24805;55.852;37.644;2024-03-08T19:57:06;99171.09;;;0.76;54.29
39051;BME280;24805;55.852;37.644;2024-03-08T20:02:27;99163.41;;;0.95;53.70
39051;BME280;24805;55.852;37.644;2024-03-08T20:07:29;99173.06;;;0.83;53.61
39051;BME280;24805;55.852;37.644;2024-03-08T20:12:33;99163.56;;;0.82;53.80
39051;BME280;24805;55.852;37.644;2024-03-08T20:17:36;99183.63;;;0.82;53.51
39051;BME280;24805;55.852;37.644;2024-03-08T20:22:49;99179.28;;;0.71;53.82
39051;BME280;24805;55.852;37.644;2024-03-08T20:27:53;99180.59;;;0.65;53.36
39051;BME280;24805;55.852;37.644;2024-03-08T20:32:59;99173.41;;;0.58;53.22
39051;BME280;24805;55.852;37.644;2024-03-08T20:38:04;99181.13;;;0.59;53.32
39051;BME280;24805;55.852;37.644;2024-03-08T20:43:12;99171.03;;;0.55;53.37
39051;BME280;24805;55.852;37.644;2024-03-08T20:48:20;99158.09;;;0.53;53.44
39051;BME280;24805;55.852;37.644;2024-03-08T20:53:23;99175.13;;;0.68;53.33
39051;BME280;24805;55.852;37.644;2024-03-08T20:58:26;99177.03;;;0.78;53.03
39051;BME280;24805;55.852;37.644;2024-03-08T21:03:28;99167.84;;;0.83;52.73
39051;BME280;24805;55.852;37.644;2024-03-08T21:08:30;99173.88;;;0.84;53.02
39051;BME280;24805;55.852;37.644;2024-03-08T21:13:32;99180.91;;;0.83;52.46
39051;BME280;24805;55.852;37.644;2024-03-08T21:18:36;99177.56;;;0.81;52.94
39051;BME280;24805;55.852;37.644;2024-03-08T21:23:40;99171.41;;;0.82;52.76
39051;BME280;24805;55.852;37.644;2024-03-08T21:28:43;99170.44;;;0.83;52.55
39051;BME280;24805;55.852;37.644;2024-03-08T21:33:45;99173.69;;;0.76;52.59
39051;BME280;24805;55.852;37.644;2024-03-08T21:38:50;99184.38;;;0.73;52.77
39051;BME280;24805;55.852;37.644;2024-03-08T21:43:52;99179.88;;;0.75;52.35
39051;BME280;24805;55.852;37.644;2024-03-08T21:48:54;99175.59;;;0.74;52.07
39051;BME280;24805;55.852;37.644;2024-03-08T21:53:57;99180.25;;;0.70;52.03
39051;BME280;24805;55.852;37.644;2024-03-08T21:58:59;99180.47;;;0.67;51.48
39051;BME280;24805;55.852;37.644;2024-03-08T22:04:03;99188.56;;;0.64;51.60
39051;BME280;24805;55.852;37.644;2024-03-08T22:09:05;99190.84;;;0.57;51.66
39051;BME280;24805;55.852;37.644;2024-03-08T22:14:08;99177.53;;;0.60;51.57
39051;BME280;24805;55.852;37.644;2024-03-08T22:19:10;99183.56;;;0.61;51.85
39051;BME280;24805;55.852;37.644;2024-03-08T22:24:13;99191.03;;;0.65;50.97
39051;BME280;24805;55.852;37.644;2024-03-08T22:29:15;99186.34;;;0.59;51.03
39051;BME280;24805;55.852;37.644;2024-03-08T22:34:17;99188.78;;;0.61;50.95
39051;BME280;24805;55.852;37.644;2024-03-08T22:39:20;99188.59;;;0.53;50.80
39051;BME280;24805;55.852;37.644;2024-03-08T22:44:26;99195.59;;;0.52;50.82
39051;BME280;24805;55.852;37.644;2024-03-08T22:49:29;99202.13;;;0.47;50.65
39051;BME280;24805;55.852;37.644;2024-03-08T22:54:31;99206.19;;;0.40;50.35
39051;BME280;24805;55.852;37.644;2024-03-08T22:59:35;99188.03;;;0.27;50.13
39051;BME280;24805;55.852;37.644;2024-03-08T23:04:37;99202.53;;;0.20;49.83
39051;BME280;24805;55.852;37.644;2024-03-08T23:09:41;99205.97;;;0.09;50.44
39051;BME280;24805;55.852;37.644;2024-03-08T23:14:45;99203.69;;;0.05;50.27
39051;BME280;24805;55.852;37.644;2024-03-08T23:19:47;99203.09;;;0.01;50.11
39051;BME280;24805;55.852;37.644;2024-03-08T23:24:50;99207.03;;;-0.05;50.51
39051;BME280;24805;55.852;37.644;2024-03-08T23:29:53;99212.38;;;-0.06;50.03
39051;BME280;24805;55.852;37.644;2024-03-08T23:34:55;99212.38;;;-0.06;49.85
39051;BME280;24805;55.852;37.644;2024-03-08T23:39:57;99209.41;;;-0.02;50.16
39051;BME280;24805;55.852;37.644;2024-03-08T23:44:59;99204.31;;;-0.03;49.80
39051;BME280;24805;55.852;37.644;2024-03-08T23:50:04;99219.13;;;-0.04;49.88
39051;BME280;24805;55.852;37.644;2024-03-08T23:55:10;99219.59;;;0.02;49.79
